Time;durP1;ratioP1;P1;durP2;ratioP2;P2;SDS_P1;SDS_P2;PMS_P1;PMS_P2;Temp;Humidity;BMP_temperature;BMP_pressure;BME280_temperature;BME280_humidity;BME280_pressure;Samples;Min_cycle;Max_cycle;Signal;HPM_P1;HPM_P2
2021/01/13 00:00:16;;;;;;;7.47;4.00;;;19.60;43.90;;;;;;5015933;28;20091;-65
2021/01/13 00:02:42;;;;;;;7.72;4.38;;;19.60;43.90;;;;;;5022262;28;20026;-62
2021/01/13 00:05:08;;;;;;;6.40;4.32;;;19.70;44.00;;;;;;4975023;28;20061;-65
2021/01/13 00:07:33;;;;;;;9.07;4.28;;;19.60;44.00;;;;;;5010884;28;20060;-65
2021/01/13 00:09:59;;;;;;;5.78;3.60;;;19.60;44.60;;;;;;5015844;28;20105;-64
2021/01/13 00:12:26;;;;;;;6.07;3.83;;;19.60;43.90;;;;;;5014180;28;20061;-66
2021/01/13 00:14:52;;;;;;;6.32;3.75;;;19.60;43.90;;;;;;5015373;28;20034;-65
2021/01/13 00:17:17;;;;;;;6.25;3.45;;;19.60;44.00;;;;;;5014102;28;20511;-65
2021/01/13 00:19:43;;;;;;;6.85;3.45;;;19.50;44.00;;;;;;5015759;28;20034;-65
2021/01/13 00:22:08;;;;;;;4.90;3.05;;;19.50;44.00;;;;;;5018066;28;20033;-64
2021/01/13 00:24:34;;;;;;;6.28;3.30;;;19.50;44.00;;;;;;5016740;28;20507;-65
2021/01/13 00:27:00;;;;;;;5.22;2.90;;;19.50;44.10;;;;;;5015023;28;20029;-66
2021/01/13 00:29:25;;;;;;;4.13;2.75;;;19.50;44.00;;;;;;5007405;28;20115;-65
2021/01/13 00:31:56;;;;;;;5.95;3.03;;;19.50;44.10;;;;;;5014258;28;20528;-65
2021/01/13 00:34:21;;;;;;;5.38;2.95;;;19.50;44.20;;;;;;4995737;28;20513;-65
2021/01/13 00:36:47;;;;;;;4.63;2.63;;;19.40;44.10;;;;;;5015085;28;20120;-64
2021/01/13 00:39:13;;;;;;;4.55;2.42;;;19.40;44.10;;;;;;5013556;28;20042;-64
2021/01/13 00:41:39;;;;;;;5.53;2.85;;;19.40;44.20;;;;;;5014546;28;20033;-65
2021/01/13 00:44:05;;;;;;;4.70;2.65;;;19.40;44.20;;;;;;5000554;28;20107;-65
2021/01/13 00:46:41;;;;;;;5.75;2.63;;;19.40;44.20;;;;;;4997783;28;20769;-65
2021/01/13 00:49:07;;;;;;;3.97;2.38;;;19.30;44.30;;;;;;5012752;28;20776;-64
2021/01/13 00:51:33;;;;;;;5.07;3.00;;;19.30;44.30;;;;;;5013935;28;20121;-65
2021/01/13 00:53:59;;;;;;;4.15;2.50;;;19.30;44.30;;;;;;5022581;28;20046;-65
2021/01/13 00:56:24;;;;;;;7.03;2.50;;;19.30;44.30;;;;;;5016324;28;20121;-66
2021/01/13 00:58:50;;;;;;;4.25;2.28;;;19.30;44.30;;;;;;4998796;28;20061;-65
2021/01/13 01:01:15;;;;;;;4.03;2.45;;;19.30;45.00;;;;;;5013464;28;20566;-65
2021/01/13 01:03:41;;;;;;;5.63;2.88;;;19.30;44.40;;;;;;5010742;28;20114;-67
2021/01/13 01:06:06;;;;;;;4.38;2.08;;;19.20;44.30;;;;;;5016339;28;20128;-65
2021/01/13 01:08:32;;;;;;;4.65;2.40;;;19.20;44.40;;;;;;4997588;28;20045;-65
2021/01/13 01:10:58;;;;;;;3.67;2.40;;;19.20;44.40;;;;;;5013532;28;20418;-65
2021/01/13 01:13:23;;;;;;;4.70;2.75;;;19.20;44.40;;;;;;5009973;28;20667;-65
2021/01/13 01:15:49;;;;;;;4.10;2.30;;;19.20;44.40;;;;;;5015744;28;20033;-66
2021/01/13 01:18:14;;;;;;;3.20;2.00;;;19.20;44.40;;;;;;5008842;28;20092;-62
2021/01/13 01:20:40;;;;;;;3.45;1.92;;;19.20;44.40;;;;;;5016548;28;20034;-65
2021/01/13 01:23:05;;;;;;;5.93;2.25;;;19.10;44.40;;;;;;5015600;28;20543;-65
2021/01/13 01:25:31;;;;;;;4.32;1.88;;;19.10;44.40;;;;;;5006548;28;20030;-65
2021/01/13 01:27:58;;;;;;;4.93;2.03;;;19.10;44.40;;;;;;4997730;28;20480;-65
2021/01/13 01:30:24;;;;;;;5.47;2.25;;;19.10;44.40;;;;;;5016182;28;20423;-65
2021/01/13 01:32:50;;;;;;;5.07;2.17;;;19.10;44.40;;;;;;5014819;28;20037;-65
2021/01/13 01:35:16;;;;;;;4.03;1.60;;;19.10;44.50;;;;;;5015710;28;20408;-65
2021/01/13 01:37:41;;;;;;;3.30;1.55;;;19.10;44.50;;;;;;5016364;28;20060;-62
2021/01/13 01:40:09;;;;;;;3.85;2.08;;;19.10;44.50;;;;;;5009404;28;20594;-64
2021/01/13 01:42:35;;;;;;;3.20;1.60;;;19.10;44.60;;;;;;4995697;28;20393;-62
2021/01/13 01:45:01;;;;;;;4.00;1.70;;;19.00;44.60;;;;;;4995644;28;20068;-65
2021/01/13 01:48:01;;;;;;;3.70;1.80;;;19.00;44.60;;;;;;5012704;28;20424;-65
2021/01/13 01:50:32;;;;;;;3.15;1.73;;;19.00;44.60;;;;;;4995724;28;20046;-65
2021/01/13 01:53:21;;;;;;;3.10;1.50;;;19.00;44.60;;;;;;5019496;28;20512;-66
2021/01/13 01:55:51;;;;;;;2.55;1.75;;;19.00;44.70;;;;;;5015358;28;20037;-64
2021/01/13 01:58:26;;;;;;;2.70;1.52;;;19.00;44.60;;;;;;5018698;28;20033;-65
2021/01/13 02:00:54;;;;;;;3.65;1.55;;;19.00;44.70;;;;;;4992020;28;20057;-65
2021/01/13 02:03:21;;;;;;;2.53;1.38;;;19.00;44.70;;;;;;5015511;28;20116;-65
2021/01/13 02:05:47;;;;;;;3.78;1.85;;;19.00;44.60;;;;;;5014420;28;20038;-65
2021/01/13 02:08:20;;;;;;;3.65;1.58;;;19.00;44.70;;;;;;5015716;28;20050;-65
2021/01/13 02:10:49;;;;;;;2.92;1.73;;;18.90;44.70;;;;;;5003036;28;20061;-65
2021/01/13 02:13:15;;;;;;;3.50;1.42;;;18.90;44.70;;;;;;4995311;28;20057;-65
2021/01/13 02:15:41;;;;;;;2.92;1.42;;;18.90;44.70;;;;;;5009843;28;20500;-64
2021/01/13 02:18:08;;;;;;;2.72;1.45;;;18.80;44.60;;;;;;5000794;28;20045;-64
2021/01/13 02:20:33;;;;;;;4.47;1.48;;;18.90;44.70;;;;;;5001458;28;20064;-65
2021/01/13 02:23:01;;;;;;;1.90;1.20;;;18.80;44.70;;;;;;4999894;28;20049;-65
2021/01/13 02:25:45;;;;;;;3.13;1.50;;;18.80;44.70;;;;;;4977629;28;20044;-65
2021/01/13 02:28:14;;;;;;;2.50;1.45;;;18.80;44.70;;;;;;5018179;28;20443;-65
2021/01/13 02:30:49;;;;;;;1.55;0.93;;;18.80;44.70;;;;;;4985647;28;20037;-65
2021/01/13 02:33:29;;;;;;;3.45;1.27;;;18.70;44.80;;;;;;5000048;28;21817;-65
2021/01/13 02:36:20;;;;;;;3.28;1.45;;;18.70;44.80;;;;;;4999762;28;20115;-65
2021/01/13 02:38:53;;;;;;;2.42;1.10;;;18.70;44.80;;;;;;5017975;28;20116;-62
2021/01/13 02:41:19;;;;;;;2.72;1.25;;;18.60;44.80;;;;;;5010154;28;20581;-63
2021/01/13 02:43:56;;;;;;;2.40;1.10;;;18.60;44.80;;;;;;5002591;28;20034;-65
2021/01/13 02:46:54;;;;;;;2.42;1.40;;;18.60;44.70;;;;;;4994012;28;20755;-66
2021/01/13 02:49:26;;;;;;;3.20;1.30;;;18.70;44.80;;;;;;4937631;28;20100;-66
2021/01/13 02:51:58;;;;;;;2.75;1.50;;;18.70;44.80;;;;;;5018587;28;20232;-65
2021/01/13 02:54:31;;;;;;;1.95;1.10;;;18.70;44.80;;;;;;5006544;28;20104;-64
2021/01/13 02:57:27;;;;;;;2.70;1.20;;;18.70;44.80;;;;;;5015656;28;20550;-65
2021/01/13 02:59:55;;;;;;;3.05;1.50;;;18.70;44.90;;;;;;5016339;28;20134;-62
2021/01/13 03:02:21;;;;;;;2.95;1.33;;;18.80;44.90;;;;;;4999384;28;20745;-62
2021/01/13 03:04:46;;;;;;;2.65;1.10;;;18.80;44.90;;;;;;4978953;28;20080;-65
2021/01/13 03:07:14;;;;;;;1.80;1.30;;;18.80;44.80;;;;;;5017558;28;20038;-64
2021/01/13 03:09:44;;;;;;;2.13;1.33;;;18.90;44.90;;;;;;5016394;28;20083;-64
2021/01/13 03:12:16;;;;;;;2.50;1.05;;;18.90;44.80;;;;;;5015440;28;20488;-64
2021/01/13 03:14:42;;;;;;;3.05;1.48;;;19.00;44.80;;;;;;5021457;28;20033;-65
2021/01/13 03:17:33;;;;;;;2.15;1.10;;;19.00;44.80;;;;;;4999326;28;20560;-65
2021/01/13 03:20:25;;;;;;;1.38;1.00;;;19.00;44.70;;;;;;5014507;28;20037;-65
2021/01/13 03:23:20;;;;;;;2.72;1.15;;;19.10;44.60;;;;;;5001013;28;20570;-65
2021/01/13 03:25:52;;;;;;;3.10;1.40;;;19.20;44.60;;;;;;5001806;28;20500;-63
2021/01/13 03:28:18;;;;;;;2.08;0.85;;;19.20;44.60;;;;;;4991798;28;20113;-62
2021/01/13 03:30:48;;;;;;;1.67;1.00;;;19.30;44.50;;;;;;5006033;28;20120;-65
2021/01/13 03:33:24;;;;;;;2.22;1.08;;;19.30;44.40;;;;;;4997083;28;20045;-65
2021/01/13 03:36:03;;;;;;;2.42;0.82;;;19.30;44.40;;;;;;5001015;28;20040;-65
2021/01/13 03:38:29;;;;;;;1.38;0.88;;;19.40;44.30;;;;;;5000509;28;20039;-65
2021/01/13 03:41:01;;;;;;;2.40;1.33;;;19.40;44.20;;;;;;4991588;28;20060;-65
2021/01/13 03:43:26;;;;;;;1.60;0.85;;;19.40;44.20;;;;;;5012677;28;20125;-65
2021/01/13 03:45:53;;;;;;;1.98;1.10;;;19.40;44.10;;;;;;5000854;28;20120;-65
2021/01/13 03:48:36;;;;;;;2.60;0.90;;;19.50;44.10;;;;;;5018240;28;20518;-62
2021/01/13 03:51:02;;;;;;;3.13;1.20;;;19.50;44.10;;;;;;5008890;28;20034;-65
2021/01/13 03:53:28;;;;;;;2.83;0.88;;;19.40;44.00;;;;;;5000173;28;20037;-65
2021/01/13 03:55:53;;;;;;;4.47;1.15;;;19.50;44.00;;;;;;5014941;28;20041;-64
2021/01/13 03:58:43;;;;;;;2.92;0.90;;;19.50;44.00;;;;;;4980908;28;20044;-65
2021/01/13 04:01:24;;;;;;;3.03;1.17;;;19.50;44.00;;;;;;4997787;28;20037;-65
2021/01/13 04:04:24;;;;;;;1.63;0.90;;;19.50;44.00;;;;;;5001216;28;20400;-66
2021/01/13 04:06:57;;;;;;;2.22;1.08;;;19.50;44.00;;;;;;4998697;28;20124;-66
2021/01/13 04:09:22;;;;;;;2.05;0.90;;;19.40;43.90;;;;;;4998591;28;20041;-65
2021/01/13 04:11:48;;;;;;;1.58;1.13;;;19.40;43.80;;;;;;5014270;28;20034;-65
2021/01/13 04:14:14;;;;;;;2.80;1.08;;;19.40;43.80;;;;;;5020279;28;20025;-63
2021/01/13 04:16:39;;;;;;;2.55;1.10;;;19.40;43.80;;;;;;4980037;28;20586;-65
2021/01/13 04:19:05;;;;;;;2.80;1.17;;;19.30;43.80;;;;;;5014678;28;20026;-65
2021/01/13 04:21:31;;;;;;;2.10;0.90;;;19.30;43.80;;;;;;5021759;28;20096;-65
2021/01/13 04:23:58;;;;;;;2.33;1.40;;;19.30;43.80;;;;;;5009472;28;20144;-62
2021/01/13 04:26:23;;;;;;;2.35;0.82;;;19.30;43.80;;;;;;5017154;28;20106;-65
2021/01/13 04:28:49;;;;;;;2.00;0.80;;;19.20;43.80;;;;;;5015560;28;20504;-65
2021/01/13 04:31:15;;;;;;;3.05;1.10;;;19.20;43.80;;;;;;5015878;28;20037;-65
2021/01/13 04:33:40;;;;;;;1.98;1.00;;;19.20;43.80;;;;;;5016895;28;20381;-66
2021/01/13 04:36:06;;;;;;;2.92;1.00;;;19.20;43.80;;;;;;5016205;28;20180;-65
2021/01/13 04:38:33;;;;;;;2.63;0.88;;;19.20;43.80;;;;;;5016504;28;20033;-65
2021/01/13 04:41:10;;;;;;;2.20;1.23;;;19.20;43.80;;;;;;5015943;28;20033;-65
2021/01/13 04:43:52;;;;;;;3.42;0.93;;;19.20;43.80;;;;;;5014355;28;20037;-63
2021/01/13 04:46:30;;;;;;;2.53;0.88;;;19.20;44.00;;;;;;5009581;28;20037;-65
2021/01/13 04:49:11;;;;;;;1.98;0.90;;;19.10;43.80;;;;;;4998373;28;20045;-65
2021/01/13 04:51:44;;;;;;;3.45;0.80;;;19.10;43.90;;;;;;4996384;28;20033;-65
2021/01/13 04:54:14;;;;;;;3.88;0.90;;;19.10;43.90;;;;;;4996791;28;20046;-65
2021/01/13 04:56:45;;;;;;;2.50;1.00;;;19.00;43.90;;;;;;5019213;28;20037;-65
2021/01/13 04:59:41;;;;;;;1.92;0.82;;;19.00;43.90;;;;;;5013219;28;20501;-65
2021/01/13 05:02:08;;;;;;;1.65;0.90;;;19.00;44.00;;;;;;4994952;28;20452;-65
2021/01/13 05:04:53;;;;;;;1.70;0.70;;;19.00;43.90;;;;;;4995426;28;20038;-65
2021/01/13 05:07:28;;;;;;;;;;;19.00;44.00;;;;;;5015661;28;20053;-64
2021/01/13 05:10:06;;;;;;;1.42;0.70;;;19.00;43.90;;;;;;5016076;28;19963;-65
2021/01/13 05:13:01;;;;;;;2.00;0.90;;;19.00;44.00;;;;;;5012819;28;20059;-65
2021/01/13 05:15:31;;;;;;;2.33;0.87;;;18.90;44.00;;;;;;5004134;28;21518;-65
2021/01/13 05:18:06;;;;;;;2.35;0.82;;;18.90;44.00;;;;;;4997835;28;20087;-65
2021/01/13 05:20:39;;;;;;;2.10;0.88;;;18.90;44.00;;;;;;5020216;28;20065;-65
2021/01/13 05:23:06;;;;;;;1.95;0.70;;;18.90;44.10;;;;;;5012808;28;20044;-65
2021/01/13 05:25:40;;;;;;;1.85;0.90;;;18.90;44.10;;;;;;5013645;28;20044;-64
2021/01/13 05:28:07;;;;;;;1.73;0.73;;;18.90;44.10;;;;;;4997078;28;20034;-64
2021/01/13 05:30:59;;;;;;;1.40;0.70;;;18.90;44.10;;;;;;5015586;28;20093;-68
2021/01/13 05:33:26;;;;;;;1.85;0.73;;;18.90;44.10;;;;;;4990669;28;20040;-67
2021/01/13 05:36:10;;;;;;;6.40;1.00;;;18.90;44.20;;;;;;5015591;28;20169;-66
2021/01/13 05:38:57;;;;;;;1.48;0.70;;;18.80;44.10;;;;;;4996067;28;21511;-61
2021/01/13 05:41:23;;;;;;;1.35;0.80;;;18.80;44.20;;;;;;5012264;28;20030;-66
2021/01/13 05:43:49;;;;;;;1.48;0.80;;;18.80;44.20;;;;;;5020163;28;20112;-64
2021/01/13 05:46:16;;;;;;;3.22;1.10;;;18.80;44.20;;;;;;5011872;28;20137;-65
2021/01/13 05:48:51;;;;;;;2.72;0.80;;;18.80;44.20;;;;;;5012178;28;20048;-64
2021/01/13 05:51:26;;;;;;;2.65;0.60;;;18.80;44.30;;;;;;5014070;28;20498;-65
2021/01/13 05:53:52;;;;;;;1.98;0.70;;;18.80;44.40;;;;;;5012800;28;20048;-64
2021/01/13 05:56:17;;;;;;;3.83;0.68;;;18.80;44.30;;;;;;5011851;28;20117;-65
2021/01/13 05:58:43;;;;;;;1.80;0.90;;;18.80;44.30;;;;;;5013567;28;20033;-65
2021/01/13 06:01:20;;;;;;;1.77;0.60;;;18.70;44.30;;;;;;4976799;28;20038;-63
2021/01/13 06:03:45;;;;;;;1.77;1.00;;;18.80;44.40;;;;;;4995817;28;20620;-63
2021/01/13 06:06:11;;;;;;;2.20;0.73;;;18.70;44.40;;;;;;4995022;28;20514;-66
2021/01/13 06:08:37;;;;;;;4.13;1.02;;;18.70;44.40;;;;;;4995566;28;20041;-65
2021/01/13 06:11:03;;;;;;;2.05;0.65;;;18.70;44.40;;;;;;4995435;28;20088;-66
2021/01/13 06:13:33;;;;;;;2.25;1.05;;;18.70;44.50;;;;;;4997005;28;20057;-65
2021/01/13 06:16:03;;;;;;;2.55;0.80;;;18.70;44.50;;;;;;5013868;28;20045;-65
2021/01/13 06:18:30;;;;;;;1.42;0.90;;;18.70;44.60;;;;;;5017059;28;20064;-65
2021/01/13 06:20:57;;;;;;;3.38;1.08;;;18.70;44.50;;;;;;5007533;28;20038;-64
2021/01/13 06:23:24;;;;;;;1.38;0.80;;;18.70;44.50;;;;;;5014396;28;20108;-65
2021/01/13 06:25:53;;;;;;;2.13;0.80;;;18.70;44.50;;;;;;4997489;28;20040;-65
2021/01/13 06:28:23;;;;;;;2.22;0.95;;;18.70;44.50;;;;;;5014103;28;20045;-64
2021/01/13 06:31:13;;;;;;;2.10;1.05;;;18.70;44.60;;;;;;5013143;28;20121;-65
2021/01/13 06:33:54;;;;;;;2.05;0.73;;;18.70;44.60;;;;;;4989514;28;20105;-64
2021/01/13 06:36:21;;;;;;;3.42;0.98;;;18.70;44.50;;;;;;5003874;28;20038;-64
2021/01/13 06:38:54;;;;;;;3.33;1.02;;;18.70;44.60;;;;;;5013342;28;20607;-65
2021/01/13 06:41:19;;;;;;;3.35;0.88;;;18.70;44.60;;;;;;5024595;28;20036;-62
2021/01/13 06:44:04;;;;;;;6.10;1.10;;;18.60;44.60;;;;;;5025458;28;20034;-64
2021/01/13 06:46:32;;;;;;;3.20;1.00;;;18.60;44.70;;;;;;5024223;28;20384;-64
2021/01/13 06:49:10;;;;;;;3.55;1.17;;;18.60;44.70;;;;;;5024201;28;20033;-65
2021/01/13 06:51:36;;;;;;;2.45;1.20;;;18.60;44.80;;;;;;5024259;28;20218;-62
2021/01/13 06:54:01;;;;;;;2.00;1.17;;;18.50;44.80;;;;;;5007339;28;20056;-64
2021/01/13 06:56:27;;;;;;;3.53;1.00;;;18.50;44.80;;;;;;5006504;28;20037;-64
2021/01/13 06:59:02;;;;;;;8.73;1.48;;;18.50;44.80;;;;;;5006884;28;20021;-64
2021/01/13 07:01:31;;;;;;;6.07;1.45;;;18.50;44.90;;;;;;5024569;28;20117;-64
2021/01/13 07:04:00;;;;;;;3.05;1.30;;;18.40;44.90;;;;;;5025578;28;20029;-63
2021/01/13 07:06:27;;;;;;;2.92;1.20;;;18.50;45.00;;;;;;5027483;28;20224;-64
2021/01/13 07:08:53;;;;;;;2.25;1.23;;;18.40;45.00;;;;;;5010730;28;20029;-64
2021/01/13 07:11:18;;;;;;;2.40;1.40;;;18.50;45.00;;;;;;5028090;28;20183;-63
2021/01/13 07:13:52;;;;;;;2.78;1.00;;;18.50;44.90;;;;;;5029459;28;20117;-64
2021/01/13 07:16:22;;;;;;;3.72;1.17;;;18.50;44.80;;;;;;5027542;28;20029;-63
2021/01/13 07:18:47;;;;;;;4.05;1.50;;;18.50;44.80;;;;;;5027949;28;20480;-61
2021/01/13 07:21:13;;;;;;;5.72;1.90;;;18.50;44.80;;;;;;5027605;28;20037;-64
2021/01/13 07:23:41;;;;;;;11.65;3.17;;;18.60;44.80;;;;;;5027831;28;20037;-64
2021/01/13 07:26:07;;;;;;;8.18;3.10;;;18.60;44.90;;;;;;5027203;28;20038;-64
2021/01/13 07:28:34;;;;;;;9.52;3.58;;;18.60;44.90;;;;;;5027766;28;20040;-63
2021/01/13 07:30:59;;;;;;;11.68;4.30;;;18.60;44.90;;;;;;5027447;28;20495;-64
2021/01/13 07:33:25;;;;;;;10.70;3.50;;;18.60;44.90;;;;;;5010270;28;20044;-65
2021/01/13 07:35:50;;;;;;;13.25;4.03;;;18.70;44.90;;;;;;5009444;28;20033;-65
2021/01/13 07:38:17;;;;;;;9.57;3.70;;;18.70;45.60;;;;;;5028593;28;20387;-65
2021/01/13 07:41:00;;;;;;;7.93;3.88;;;18.70;44.90;;;;;;5027345;28;20088;-65
2021/01/13 07:43:44;;;;;;;10.15;4.05;;;18.70;44.90;;;;;;5009299;28;20036;-66
2021/01/13 07:46:15;;;;;;;10.70;4.03;;;18.70;44.90;;;;;;5026782;28;20060;-65
2021/01/13 07:49:10;;;;;;;9.10;3.83;;;18.70;44.90;;;;;;5010428;28;20045;-65
2021/01/13 07:51:50;;;;;;;8.85;3.60;;;18.80;44.90;;;;;;5007610;28;20803;-65
2021/01/13 07:54:32;;;;;;;8.35;3.67;;;18.70;44.90;;;;;;5027245;28;20044;-63
2021/01/13 07:56:59;;;;;;;6.95;3.63;;;18.70;44.90;;;;;;5026858;28;20051;-67
2021/01/13 07:59:46;;;;;;;5.97;3.40;;;18.80;44.90;;;;;;5028143;28;20045;-65
2021/01/13 08:02:40;;;;;;;7.25;3.78;;;18.80;44.90;;;;;;5027837;28;20034;-65
2021/01/13 08:05:21;;;;;;;6.70;3.60;;;18.80;44.90;;;;;;5027036;28;20025;-65
2021/01/13 08:08:05;;;;;;;8.20;3.75;;;18.80;44.90;;;;;;5026523;28;20045;-66
2021/01/13 08:10:30;;;;;;;7.80;4.13;;;18.90;44.90;;;;;;5025081;28;20514;-64
2021/01/13 08:13:17;;;;;;;6.57;3.10;;;18.90;44.90;;;;;;5025349;28;20033;-64
2021/01/13 08:15:47;;;;;;;6.10;3.08;;;18.90;44.80;;;;;;5024716;28;20205;-64
2021/01/13 08:18:47;;;;;;;7.85;3.22;;;18.90;44.70;;;;;;5025607;28;20057;-65
2021/01/13 08:21:22;;;;;;;9.70;3.40;;;18.90;44.70;;;;;;5026339;28;20021;-65
2021/01/13 08:23:49;;;;;;;5.63;3.17;;;19.00;44.60;;;;;;5026407;28;20048;-63
2021/01/13 08:26:15;;;;;;;4.90;2.67;;;19.00;44.50;;;;;;5024595;28;20415;-65
2021/01/13 08:28:43;;;;;;;8.23;2.80;;;19.00;44.40;;;;;;5026501;28;20057;-61
2021/01/13 08:31:09;;;;;;;6.63;2.55;;;19.00;44.30;;;;;;5025091;28;20038;-64
2021/01/13 08:33:38;;;;;;;6.03;2.85;;;19.10;44.30;;;;;;5026330;28;20042;-65
2021/01/13 08:36:14;;;;;;;5.43;3.10;;;19.10;44.30;;;;;;5016363;28;20053;-64
2021/01/13 08:39:08;;;;;;;4.93;3.00;;;19.20;44.20;;;;;;5008476;28;20034;-64
2021/01/13 08:41:34;;;;;;;6.20;2.80;;;19.20;44.20;;;;;;5025172;28;20781;-65
2021/01/13 08:44:07;;;;;;;6.50;2.88;;;19.30;44.10;;;;;;5026156;28;20061;-64
2021/01/13 08:46:41;;;;;;;4.70;2.47;;;19.30;44.00;;;;;;5025852;28;20038;-64
2021/01/13 08:49:07;;;;;;;5.90;2.72;;;19.40;44.00;;;;;;5026311;28;20040;-64
2021/01/13 08:51:33;;;;;;;5.13;3.00;;;19.40;44.10;;;;;;5025500;28;20116;-65
2021/01/13 08:54:29;;;;;;;9.15;3.00;;;19.40;43.80;;;;;;5024531;28;20491;-66
2021/01/13 08:56:55;;;;;;;7.63;2.63;;;19.50;43.90;;;;;;5014955;28;20474;-67
2021/01/13 08:59:30;;;;;;;4.35;2.53;;;19.50;43.80;;;;;;5023076;28;20030;-65
2021/01/13 09:01:57;;;;;;;4.67;2.60;;;19.50;43.70;;;;;;5006459;28;20241;-65
2021/01/13 09:04:23;;;;;;;3.53;2.53;;;19.60;43.60;;;;;;5008244;28;20457;-65
2021/01/13 09:07:00;;;;;;;4.75;2.17;;;19.60;43.60;;;;;;5023817;28;20026;-65
2021/01/13 09:09:29;;;;;;;3.90;2.53;;;19.60;43.60;;;;;;5007874;28;20029;-65
2021/01/13 09:11:55;;;;;;;5.88;2.47;;;19.60;43.40;;;;;;5024109;28;20103;-65
2021/01/13 09:14:22;;;;;;;5.57;2.63;;;19.70;43.50;;;;;;5025274;28;20060;-65
2021/01/13 09:16:53;;;;;;;5.32;2.50;;;19.70;43.40;;;;;;5023316;28;21456;-64
2021/01/13 09:19:34;;;;;;;3.03;1.95;;;19.70;43.40;;;;;;5025176;28;20036;-62
2021/01/13 09:22:01;;;;;;;4.70;2.47;;;19.70;43.40;;;;;;5025262;28;20022;-64
2021/01/13 09:24:27;;;;;;;4.70;2.38;;;19.70;43.30;;;;;;5008099;28;20087;-65
2021/01/13 09:26:56;;;;;;;3.03;2.10;;;19.70;43.30;;;;;;5023831;28;20523;-65
2021/01/13 09:29:22;;;;;;;5.28;2.25;;;19.60;43.30;;;;;;5025066;28;20037;-64
2021/01/13 09:32:12;;;;;;;4.72;2.25;;;19.60;43.30;;;;;;5007228;28;20496;-64
2021/01/13 09:34:38;;;;;;;3.42;1.65;;;19.60;43.30;;;;;;5025014;28;20033;-65
2021/01/13 09:37:03;;;;;;;4.50;2.13;;;19.60;43.30;;;;;;5016309;28;20498;-65
2021/01/13 09:39:36;;;;;;;4.53;1.92;;;19.60;43.30;;;;;;4987942;28;20034;-63
2021/01/13 09:42:04;;;;;;;2.25;1.20;;;19.60;43.30;;;;;;5004744;28;20087;-67
2021/01/13 09:44:30;;;;;;;2.38;1.38;;;19.60;43.30;;;;;;5005508;28;20034;-66
2021/01/13 09:46:56;;;;;;;5.78;1.83;;;19.50;43.40;;;;;;4995642;28;20509;-66
2021/01/13 09:49:22;;;;;;;4.68;2.10;;;19.50;43.60;;;;;;5005362;28;20034;-62
2021/01/13 09:51:47;;;;;;;2.70;1.50;;;19.50;43.60;;;;;;5004651;28;20516;-66
2021/01/13 09:54:14;;;;;;;3.75;1.80;;;19.50;43.60;;;;;;5005343;28;20544;-65
2021/01/13 09:56:39;;;;;;;4.97;2.58;;;19.50;43.60;;;;;;5004730;28;20040;-66
2021/01/13 09:59:08;;;;;;;4.63;1.85;;;19.40;43.60;;;;;;4987567;28;20038;-65
2021/01/13 10:01:36;;;;;;;2.88;1.40;;;19.40;43.70;;;;;;5005147;28;20030;-66
2021/01/13 10:04:10;;;;;;;2.78;1.50;;;19.30;43.70;;;;;;4987780;28;20038;-67
2021/01/13 10:06:39;;;;;;;5.00;1.80;;;19.30;43.80;;;;;;4987984;28;20041;-65
2021/01/13 10:09:15;;;;;;;3.35;1.73;;;19.20;43.80;;;;;;5004639;28;20096;-65
2021/01/13 10:11:41;;;;;;;3.88;1.98;;;19.20;43.90;;;;;;5004965;28;20034;-63
2021/01/13 10:14:08;;;;;;;2.88;1.40;;;19.20;44.00;;;;;;5005213;28;20041;-64
2021/01/13 10:16:40;;;;;;;8.15;2.22;;;19.10;44.10;;;;;;5004639;28;20105;-67
2021/01/13 10:19:05;;;;;;;2.53;1.65;;;19.10;44.30;;;;;;4987643;28;20022;-67
2021/01/13 10:21:35;;;;;;;2.85;1.63;;;19.10;44.30;;;;;;5005361;28;20044;-65
2021/01/13 10:24:08;;;;;;;2.67;1.45;;;19.00;44.30;;;;;;5011619;28;20073;-65
2021/01/13 10:26:47;;;;;;;3.45;1.55;;;19.00;44.50;;;;;;5000198;28;21373;-64
2021/01/13 10:29:14;;;;;;;1.98;1.33;;;19.00;44.50;;;;;;5024766;28;20034;-62
2021/01/13 10:31:39;;;;;;;2.55;1.55;;;18.90;44.50;;;;;;5024270;28;20026;-63
2021/01/13 10:34:05;;;;;;;3.55;1.63;;;18.90;44.50;;;;;;5024474;28;20456;-66
2021/01/13 10:36:41;;;;;;;4.22;1.65;;;18.90;44.50;;;;;;5024934;28;20040;-65
2021/01/13 10:39:11;;;;;;;3.88;1.10;;;18.90;44.50;;;;;;5026841;28;20037;-63
2021/01/13 10:41:38;;;;;;;4.65;1.70;;;18.90;44.70;;;;;;5028453;28;20038;-66
2021/01/13 10:44:11;;;;;;;3.80;1.50;;;18.90;45.30;;;;;;5029043;28;20029;-66
2021/01/13 10:46:48;;;;;;;3.25;1.20;;;18.80;44.70;;;;;;5010147;28;20033;-66
2021/01/13 10:49:35;;;;;;;4.05;1.35;;;18.80;44.70;;;;;;5010819;28;20582;-65
2021/01/13 10:52:02;;;;;;;4.68;1.92;;;18.80;44.80;;;;;;5027873;28;20091;-65
2021/01/13 10:54:35;;;;;;;2.38;1.02;;;18.70;44.70;;;;;;5028270;28;20034;-65
2021/01/13 10:57:05;;;;;;;4.50;1.45;;;18.70;44.80;;;;;;5027908;28;20061;-64
2021/01/13 10:59:31;;;;;;;5.43;1.40;;;18.70;44.80;;;;;;5028563;28;20083;-64
2021/01/13 11:02:02;;;;;;;4.78;1.50;;;18.70;44.90;;;;;;5028301;28;20488;-63
2021/01/13 11:04:28;;;;;;;1.75;1.27;;;18.70;44.90;;;;;;5028411;28;20034;-65
2021/01/13 11:06:55;;;;;;;2.70;1.20;;;18.70;45.00;;;;;;5027742;28;20040;-65
2021/01/13 11:09:22;;;;;;;3.00;1.30;;;18.60;44.90;;;;;;5028011;28;20538;-65
2021/01/13 11:11:47;;;;;;;1.73;1.08;;;18.60;45.00;;;;;;5027031;28;20041;-63
2021/01/13 11:14:13;;;;;;;1.58;1.00;;;18.60;45.00;;;;;;5027854;28;20041;-65
2021/01/13 11:16:58;;;;;;;2.90;1.17;;;18.60;45.00;;;;;;5010269;28;20569;-65
2021/01/13 11:19:23;;;;;;;3.07;1.20;;;18.50;45.10;;;;;;4994116;28;20030;-66
2021/01/13 11:21:49;;;;;;;3.00;1.70;;;18.50;45.10;;;;;;5010065;28;20056;-64
2021/01/13 11:24:15;;;;;;;4.03;1.50;;;18.50;45.10;;;;;;5010169;28;20041;-64
2021/01/13 11:26:40;;;;;;;2.58;1.45;;;18.50;45.10;;;;;;5009860;28;20029;-65
2021/01/13 11:29:06;;;;;;;3.40;1.17;;;18.40;45.10;;;;;;5010636;28;20049;-65
2021/01/13 11:31:31;;;;;;;2.97;1.33;;;18.50;45.20;;;;;;5010200;28;20528;-65
2021/01/13 11:33:57;;;;;;;2.65;1.35;;;18.50;45.20;;;;;;5010064;28;20028;-65
2021/01/13 11:36:26;;;;;;;2.03;1.02;;;18.50;45.20;;;;;;5009499;28;20121;-65
2021/01/13 11:38:54;;;;;;;3.72;1.90;;;18.50;45.20;;;;;;5026021;28;20037;-65
2021/01/13 11:41:30;;;;;;;1.70;1.10;;;18.50;45.20;;;;;;5027267;28;20033;-65
2021/01/13 11:44:34;;;;;;;1.95;1.20;;;18.50;45.20;;;;;;5010457;28;20551;-65
2021/01/13 11:47:12;;;;;;;2.17;1.20;;;18.50;45.20;;;;;;5026861;28;20036;-64
2021/01/13 11:49:44;;;;;;;3.17;1.40;;;18.50;45.20;;;;;;5026598;28;20068;-62
2021/01/13 11:52:12;;;;;;;2.13;1.45;;;18.50;45.20;;;;;;5009387;28;20542;-62
2021/01/13 11:54:39;;;;;;;3.50;1.30;;;18.50;45.10;;;;;;4993347;28;20036;-63
2021/01/13 11:57:21;;;;;;;2.58;1.38;;;18.50;45.20;;;;;;5008633;28;20064;-65
2021/01/13 11:59:47;;;;;;;3.00;1.10;;;18.50;45.10;;;;;;5008747;28;20033;-65
2021/01/13 12:02:15;;;;;;;3.15;1.38;;;18.50;45.10;;;;;;5025828;28;20458;-65
2021/01/13 12:04:44;;;;;;;2.92;1.27;;;18.50;45.10;;;;;;5026390;28;20726;-65
2021/01/13 12:07:09;;;;;;;1.98;0.95;;;18.50;45.10;;;;;;5008079;28;20057;-65
2021/01/13 12:09:36;;;;;;;2.83;1.27;;;18.60;45.10;;;;;;5025969;28;20554;-66
2021/01/13 12:12:03;;;;;;;2.55;1.40;;;18.60;45.00;;;;;;5025821;28;20069;-66
2021/01/13 12:14:43;;;;;;;2.45;0.93;;;18.60;45.00;;;;;;5025736;28;20033;-65
2021/01/13 12:17:09;;;;;;;1.35;0.93;;;18.60;45.00;;;;;;5007917;28;20638;-66
2021/01/13 12:19:38;;;;;;;2.65;1.10;;;18.60;44.90;;;;;;5025757;28;20029;-65
2021/01/13 12:22:04;;;;;;;2.20;1.30;;;18.60;45.00;;;;;;5007815;28;20061;-65
2021/01/13 12:24:42;;;;;;;2.05;1.00;;;18.70;44.90;;;;;;5025758;28;20113;-65
2021/01/13 12:27:27;;;;;;;3.35;1.20;;;18.70;44.70;;;;;;5025053;28;20116;-62
2021/01/13 12:30:08;;;;;;;2.13;0.77;;;18.80;44.50;;;;;;5007114;28;20041;-65
2021/01/13 12:32:33;;;;;;;3.88;1.33;;;18.80;44.30;;;;;;5025727;28;20116;-63
2021/01/13 12:34:59;;;;;;;4.30;1.23;;;18.80;44.20;;;;;;5025538;28;20563;-62
2021/01/13 12:37:25;;;;;;;2.33;1.30;;;18.80;44.00;;;;;;5025136;28;20037;-65
2021/01/13 12:39:56;;;;;;;1.25;1.10;;;18.80;44.30;;;;;;5025416;28;20033;-65
2021/01/13 12:42:27;;;;;;;2.22;1.13;;;18.80;44.50;;;;;;5025220;28;20033;-61
2021/01/13 12:44:52;;;;;;;3.40;1.20;;;18.90;44.50;;;;;;5025557;28;20053;-64
2021/01/13 12:47:24;;;;;;;2.90;0.88;;;18.90;44.60;;;;;;5007672;28;20788;-63
2021/01/13 12:49:49;;;;;;;1.60;1.17;;;18.90;44.60;;;;;;5006260;28;20038;-63
2021/01/13 12:52:16;;;;;;;1.50;0.95;;;18.90;44.70;;;;;;5005944;28;20041;-64
2021/01/13 12:54:41;;;;;;;4.55;1.08;;;18.90;44.70;;;;;;4989311;28;20034;-64
2021/01/13 12:57:07;;;;;;;2.03;1.00;;;18.90;44.70;;;;;;4988176;28;20026;-66
2021/01/13 12:59:32;;;;;;;2.05;0.88;;;18.90;44.70;;;;;;5006265;28;20420;-66
2021/01/13 13:01:58;;;;;;;2.88;1.17;;;18.90;44.80;;;;;;5005111;28;20053;-64
2021/01/13 13:04:23;;;;;;;2.22;1.17;;;18.90;44.70;;;;;;5005976;28;20036;-66
2021/01/13 13:06:49;;;;;;;2.60;0.90;;;18.90;44.70;;;;;;5006210;28;20472;-66